sensor_id;sensor_type;location;lat;lon;timestamp;P1;durP1;ratioP1;P2;durP2;ratioP2
49610;SDS011;35515;48.766;9.176;2023-10-13T00:00:33;7.15;;;4.50;;
49610;SDS011;35515;48.766;9.176;2023-10-13T00:03:01;8.80;;;4.47;;
49610;SDS011;35515;48.766;9.176;2023-10-13T00:05:28;9.10;;;4.15;;
49610;SDS011;35515;48.766;9.176;2023-10-13T00:07:55;8.63;;;3.92;;
49610;SDS011;35515;48.766;9.176;2023-10-13T00:10:25;6.82;;;4.30;;
49610;SDS011;35515;48.766;9.176;2023-10-13T00:12:56;9.05;;;4.43;;
49610;SDS011;35515;48.766;9.176;2023-10-13T00:15:31;9.27;;;4.30;;
49610;SDS011;35515;48.766;9.176;2023-10-13T00:18:03;7.47;;;4.30;;
49610;SDS011;35515;48.766;9.176;2023-10-13T00:20:37;7.60;;;4.35;;
49610;SDS011;35515;48.766;9.176;2023-10-13T00:23:04;8.43;;;4.15;;
49610;SDS011;35515;48.766;9.176;2023-10-13T00:25:31;9.60;;;4.00;;
49610;SDS011;35515;48.766;9.176;2023-10-13T00:28:09;8.25;;;4.28;;
49610;SDS011;35515;48.766;9.176;2023-10-13T00:30:36;6.53;;;3.47;;
49610;SDS011;35515;48.766;9.176;2023-10-13T00:33:03;8.07;;;4.25;;
49610;SDS011;35515;48.766;9.176;2023-10-13T00:35:30;9.52;;;4.20;;
49610;SDS011;35515;48.766;9.176;2023-10-13T00:38:02;6.60;;;3.90;;
49610;SDS011;35515;48.766;9.176;2023-10-13T00:40:37;6.30;;;3.80;;
49610;SDS011;35515;48.766;9.176;2023-10-13T00:43:10;8.15;;;4.53;;
49610;SDS011;35515;48.766;9.176;2023-10-13T00:46:00;10.98;;;3.90;;
49610;SDS011;35515;48.766;9.176;2023-10-13T00:48:44;7.78;;;3.72;;
49610;SDS011;35515;48.766;9.176;2023-10-13T00:51:17;9.18;;;4.00;;
49610;SDS011;35515;48.766;9.176;2023-10-13T00:53:47;7.82;;;3.72;;
49610;SDS011;35515;48.766;9.176;2023-10-13T00:56:15;7.15;;;3.30;;
49610;SDS011;35515;48.766;9.176;2023-10-13T00:58:47;7.80;;;3.72;;
49610;SDS011;35515;48.766;9.176;2023-10-13T01:01:17;8.25;;;3.92;;
49610;SDS011;35515;48.766;9.176;2023-10-13T01:03:43;10.00;;;4.45;;
49610;SDS011;35515;48.766;9.176;2023-10-13T01:06:13;8.30;;;4.20;;
49610;SDS011;35515;48.766;9.176;2023-10-13T01:08:41;8.18;;;4.68;;
49610;SDS011;35515;48.766;9.176;2023-10-13T01:11:09;8.90;;;4.53;;
49610;SDS011;35515;48.766;9.176;2023-10-13T01:13:35;8.60;;;4.28;;
49610;SDS011;35515;48.766;9.176;2023-10-13T01:16:03;8.70;;;4.10;;
49610;SDS011;35515;48.766;9.176;2023-10-13T01:18:32;9.43;;;4.18;;
49610;SDS011;35515;48.766;9.176;2023-10-13T01:20:58;7.10;;;4.22;;
49610;SDS011;35515;48.766;9.176;2023-10-13T01:23:27;9.32;;;3.80;;
49610;SDS011;35515;48.766;9.176;2023-10-13T01:25:54;9.20;;;4.10;;
49610;SDS011;35515;48.766;9.176;2023-10-13T01:28:22;8.27;;;4.00;;
49610;SDS011;35515;48.766;9.176;2023-10-13T01:30:49;5.95;;;4.15;;
49610;SDS011;35515;48.766;9.176;2023-10-13T01:33:16;7.05;;;4.65;;
49610;SDS011;35515;48.766;9.176;2023-10-13T01:35:41;8.10;;;4.43;;
49610;SDS011;35515;48.766;9.176;2023-10-13T01:38:12;7.60;;;3.80;;
49610;SDS011;35515;48.766;9.176;2023-10-13T01:40:40;6.78;;;3.97;;
49610;SDS011;35515;48.766;9.176;2023-10-13T01:43:08;9.55;;;3.90;;
49610;SDS011;35515;48.766;9.176;2023-10-13T01:45:36;8.73;;;3.85;;
49610;SDS011;35515;48.766;9.176;2023-10-13T01:48:11;9.15;;;3.90;;
49610;SDS011;35515;48.766;9.176;2023-10-13T01:50:37;7.82;;;4.30;;
49610;SDS011;35515;48.766;9.176;2023-10-13T01:53:04;7.47;;;4.13;;
49610;SDS011;35515;48.766;9.176;2023-10-13T01:55:37;7.90;;;3.90;;
49610;SDS011;35515;48.766;9.176;2023-10-13T01:58:08;6.55;;;3.55;;
49610;SDS011;35515;48.766;9.176;2023-10-13T02:00:40;7.88;;;3.58;;
49610;SDS011;35515;48.766;9.176;2023-10-13T02:03:08;6.65;;;3.60;;
49610;SDS011;35515;48.766;9.176;2023-10-13T02:05:41;7.32;;;3.92;;
49610;SDS011;35515;48.766;9.176;2023-10-13T02:08:12;12.80;;;4.07;;
49610;SDS011;35515;48.766;9.176;2023-10-13T02:10:44;6.90;;;3.85;;
49610;SDS011;35515;48.766;9.176;2023-10-13T02:13:12;8.82;;;4.05;;
49610;SDS011;35515;48.766;9.176;2023-10-13T02:15:42;7.85;;;3.67;;
49610;SDS011;35515;48.766;9.176;2023-10-13T02:18:09;10.23;;;4.47;;
49610;SDS011;35515;48.766;9.176;2023-10-13T02:20:36;9.32;;;4.93;;
49610;SDS011;35515;48.766;9.176;2023-10-13T02:23:08;5.90;;;4.10;;
49610;SDS011;35515;48.766;9.176;2023-10-13T02:25:35;7.25;;;4.05;;
49610;SDS011;35515;48.766;9.176;2023-10-13T02:28:09;7.30;;;4.22;;
49610;SDS011;35515;48.766;9.176;2023-10-13T02:30:39;15.85;;;4.85;;
49610;SDS011;35515;48.766;9.176;2023-10-13T02:33:10;6.32;;;3.50;;
49610;SDS011;35515;48.766;9.176;2023-10-13T02:35:38;8.95;;;3.92;;
49610;SDS011;35515;48.766;9.176;2023-10-13T02:38:07;7.72;;;4.15;;
49610;SDS011;35515;48.766;9.176;2023-10-13T02:40:36;8.38;;;3.95;;
49610;SDS011;35515;48.766;9.176;2023-10-13T02:43:03;11.30;;;4.35;;
49610;SDS011;35515;48.766;9.176;2023-10-13T02:45:32;9.02;;;3.75;;
49610;SDS011;35515;48.766;9.176;2023-10-13T02:48:00;6.97;;;4.30;;
49610;SDS011;35515;48.766;9.176;2023-10-13T02:50:39;8.07;;;4.43;;
49610;SDS011;35515;48.766;9.176;2023-10-13T02:55:38;8.25;;;4.30;;
49610;SDS011;35515;48.766;9.176;2023-10-13T02:58:14;6.68;;;4.00;;
49610;SDS011;35515;48.766;9.176;2023-10-13T03:00:42;8.57;;;3.65;;
49610;SDS011;35515;48.766;9.176;2023-10-13T03:03:07;8.18;;;4.40;;
49610;SDS011;35515;48.766;9.176;2023-10-13T03:05:34;8.77;;;4.32;;
49610;SDS011;35515;48.766;9.176;2023-10-13T03:08:01;8.93;;;4.30;;
49610;SDS011;35515;48.766;9.176;2023-10-13T03:10:29;11.10;;;4.50;;
49610;SDS011;35515;48.766;9.176;2023-10-13T03:12:55;9.52;;;4.50;;
49610;SDS011;35515;48.766;9.176;2023-10-13T03:15:21;7.30;;;4.43;;
49610;SDS011;35515;48.766;9.176;2023-10-13T03:17:55;6.20;;;4.03;;
49610;SDS011;35515;48.766;9.176;2023-10-13T03:20:24;6.43;;;4.10;;
49610;SDS011;35515;48.766;9.176;2023-10-13T03:22:55;6.82;;;3.78;;
49610;SDS011;35515;48.766;9.176;2023-10-13T03:25:22;7.90;;;4.20;;
49610;SDS011;35515;48.766;9.176;2023-10-13T03:27:49;6.93;;;4.03;;
49610;SDS011;35515;48.766;9.176;2023-10-13T03:30:29;9.13;;;4.30;;
49610;SDS011;35515;48.766;9.176;2023-10-13T03:33:02;5.95;;;3.95;;
49610;SDS011;35515;48.766;9.176;2023-10-13T03:35:33;10.48;;;4.82;;
49610;SDS011;35515;48.766;9.176;2023-10-13T03:38:06;7.30;;;3.63;;
49610;SDS011;35515;48.766;9.176;2023-10-13T03:40:40;10.32;;;4.70;;
49610;SDS011;35515;48.766;9.176;2023-10-13T03:43:06;7.03;;;3.97;;
49610;SDS011;35515;48.766;9.176;2023-10-13T03:45:34;8.13;;;4.55;;
49610;SDS011;35515;48.766;9.176;2023-10-13T03:48:06;8.70;;;4.80;;
49610;SDS011;35515;48.766;9.176;2023-10-13T03:50:41;12.07;;;4.45;;
49610;SDS011;35515;48.766;9.176;2023-10-13T03:53:13;13.27;;;4.90;;
49610;SDS011;35515;48.766;9.176;2023-10-13T03:55:40;7.80;;;4.40;;
49610;SDS011;35515;48.766;9.176;2023-10-13T03:58:13;8.82;;;4.28;;
49610;SDS011;35515;48.766;9.176;2023-10-13T04:00:41;11.65;;;4.75;;
49610;SDS011;35515;48.766;9.176;2023-10-13T04:03:09;7.68;;;4.25;;
49610;SDS011;35515;48.766;9.176;2023-10-13T04:05:41;8.63;;;4.80;;
49610;SDS011;35515;48.766;9.176;2023-10-13T04:08:10;7.45;;;4.18;;
49610;SDS011;35515;48.766;9.176;2023-10-13T04:10:55;10.15;;;4.13;;
49610;SDS011;35515;48.766;9.176;2023-10-13T04:13:40;11.10;;;4.53;;
49610;SDS011;35515;48.766;9.176;2023-10-13T04:16:23;7.70;;;4.78;;
49610;SDS011;35515;48.766;9.176;2023-10-13T04:19:05;7.07;;;4.20;;
49610;SDS011;35515;48.766;9.176;2023-10-13T04:21:44;9.33;;;3.93;;
49610;SDS011;35515;48.766;9.176;2023-10-13T04:24:22;6.35;;;4.00;;
49610;SDS011;35515;48.766;9.176;2023-10-13T04:27:02;9.00;;;4.57;;
49610;SDS011;35515;48.766;9.176;2023-10-13T04:29:54;6.97;;;4.28;;
49610;SDS011;35515;48.766;9.176;2023-10-13T04:32:35;8.88;;;4.55;;
49610;SDS011;35515;48.766;9.176;2023-10-13T04:35:08;7.57;;;4.43;;
49610;SDS011;35515;48.766;9.176;2023-10-13T04:37:35;10.35;;;4.72;;
49610;SDS011;35515;48.766;9.176;2023-10-13T04:40:16;8.80;;;4.30;;
49610;SDS011;35515;48.766;9.176;2023-10-13T04:42:44;7.88;;;4.70;;
49610;SDS011;35515;48.766;9.176;2023-10-13T04:45:22;8.55;;;4.35;;
49610;SDS011;35515;48.766;9.176;2023-10-13T04:48:10;10.35;;;4.35;;
49610;SDS011;35515;48.766;9.176;2023-10-13T04:50:44;11.57;;;5.45;;
49610;SDS011;35515;48.766;9.176;2023-10-13T04:53:13;7.97;;;4.68;;
49610;SDS011;35515;48.766;9.176;2023-10-13T04:55:58;8.38;;;5.07;;
49610;SDS011;35515;48.766;9.176;2023-10-13T04:58:33;9.38;;;4.75;;
49610;SDS011;35515;48.766;9.176;2023-10-13T05:01:35;9.48;;;4.25;;
49610;SDS011;35515;48.766;9.176;2023-10-13T05:04:19;8.18;;;4.90;;
49610;SDS011;35515;48.766;9.176;2023-10-13T05:07:04;8.13;;;4.93;;
49610;SDS011;35515;48.766;9.176;2023-10-13T05:09:50;9.68;;;4.90;;
49610;SDS011;35515;48.766;9.176;2023-10-13T05:12:34;10.00;;;4.30;;
49610;SDS011;35515;48.766;9.176;2023-10-13T05:15:19;9.32;;;5.00;;
49610;SDS011;35515;48.766;9.176;2023-10-13T05:18:11;9.15;;;4.63;;
49610;SDS011;35515;48.766;9.176;2023-10-13T05:20:56;7.38;;;4.35;;
49610;SDS011;35515;48.766;9.176;2023-10-13T05:23:41;9.43;;;4.93;;
49610;SDS011;35515;48.766;9.176;2023-10-13T05:26:25;8.48;;;4.35;;
49610;SDS011;35515;48.766;9.176;2023-10-13T05:29:09;8.30;;;5.25;;
49610;SDS011;35515;48.766;9.176;2023-10-13T05:31:52;9.80;;;5.15;;
49610;SDS011;35515;48.766;9.176;2023-10-13T05:34:36;8.88;;;4.50;;
49610;SDS011;35515;48.766;9.176;2023-10-13T05:37:21;11.20;;;4.80;;
49610;SDS011;35515;48.766;9.176;2023-10-13T05:40:07;10.55;;;5.20;;
49610;SDS011;35515;48.766;9.176;2023-10-13T05:43:00;7.80;;;5.07;;
49610;SDS011;35515;48.766;9.176;2023-10-13T05:45:44;9.40;;;4.82;;
49610;SDS011;35515;48.766;9.176;2023-10-13T05:48:42;9.60;;;5.00;;
49610;SDS011;35515;48.766;9.176;2023-10-13T05:51:34;10.70;;;4.65;;
49610;SDS011;35515;48.766;9.176;2023-10-13T05:54:10;11.05;;;4.70;;
49610;SDS011;35515;48.766;9.176;2023-10-13T05:56:56;8.73;;;4.65;;
49610;SDS011;35515;48.766;9.176;2023-10-13T05:59:48;10.55;;;5.13;;
49610;SDS011;35515;48.766;9.176;2023-10-13T06:02:32;14.48;;;5.43;;
49610;SDS011;35515;48.766;9.176;2023-10-13T06:05:28;11.02;;;4.80;;
49610;SDS011;35515;48.766;9.176;2023-10-13T06:08:12;8.10;;;4.63;;
49610;SDS011;35515;48.766;9.176;2023-10-13T06:11:00;8.18;;;5.32;;
49610;SDS011;35515;48.766;9.176;2023-10-13T06:13:46;10.13;;;5.03;;
49610;SDS011;35515;48.766;9.176;2023-10-13T06:16:30;8.70;;;4.78;;
49610;SDS011;35515;48.766;9.176;2023-10-13T06:19:14;10.02;;;5.10;;
49610;SDS011;35515;48.766;9.176;2023-10-13T06:21:58;8.98;;;4.90;;
49610;SDS011;35515;48.766;9.176;2023-10-13T06:24:42;10.00;;;5.00;;
49610;SDS011;35515;48.766;9.176;2023-10-13T06:27:26;10.02;;;4.57;;
49610;SDS011;35515;48.766;9.176;2023-10-13T06:30:12;9.95;;;5.47;;
49610;SDS011;35515;48.766;9.176;2023-10-13T06:32:39;7.50;;;4.75;;
49610;SDS011;35515;48.766;9.176;2023-10-13T06:35:06;10.82;;;5.38;;
49610;SDS011;35515;48.766;9.176;2023-10-13T06:37:43;8.05;;;4.63;;
49610;SDS011;35515;48.766;9.176;2023-10-13T06:40:10;12.02;;;4.82;;
49610;SDS011;35515;48.766;9.176;2023-10-13T06:42:47;10.02;;;4.90;;
49610;SDS011;35515;48.766;9.176;2023-10-13T06:45:15;10.43;;;4.57;;
49610;SDS011;35515;48.766;9.176;2023-10-13T06:47:43;7.20;;;4.65;;
49610;SDS011;35515;48.766;9.176;2023-10-13T06:50:10;8.90;;;4.30;;
49610;SDS011;35515;48.766;9.176;2023-10-13T06:52:41;14.13;;;5.32;;
49610;SDS011;35515;48.766;9.176;2023-10-13T06:55:08;13.88;;;5.43;;
49610;SDS011;35515;48.766;9.176;2023-10-13T06:57:36;8.35;;;4.22;;
49610;SDS011;35515;48.766;9.176;2023-10-13T07:00:08;9.10;;;4.97;;
49610;SDS011;35515;48.766;9.176;2023-10-13T07:02:45;10.38;;;5.07;;
49610;SDS011;35515;48.766;9.176;2023-10-13T07:05:13;10.85;;;4.75;;
49610;SDS011;35515;48.766;9.176;2023-10-13T07:07:40;8.00;;;4.75;;
49610;SDS011;35515;48.766;9.176;2023-10-13T07:10:08;8.75;;;4.55;;
49610;SDS011;35515;48.766;9.176;2023-10-13T07:12:36;8.57;;;4.32;;
49610;SDS011;35515;48.766;9.176;2023-10-13T07:15:08;11.38;;;4.43;;
49610;SDS011;35515;48.766;9.176;2023-10-13T07:17:45;10.25;;;4.10;;
49610;SDS011;35515;48.766;9.176;2023-10-13T07:20:13;8.05;;;4.57;;
49610;SDS011;35515;48.766;9.176;2023-10-13T07:22:48;10.50;;;5.03;;
49610;SDS011;35515;48.766;9.176;2023-10-13T07:25:22;10.18;;;4.05;;
49610;SDS011;35515;48.766;9.176;2023-10-13T07:27:50;9.70;;;4.75;;
49610;SDS011;35515;48.766;9.176;2023-10-13T07:30:19;10.73;;;4.53;;
49610;SDS011;35515;48.766;9.176;2023-10-13T07:32:52;11.00;;;4.50;;
49610;SDS011;35515;48.766;9.176;2023-10-13T07:35:20;8.02;;;4.15;;
49610;SDS011;35515;48.766;9.176;2023-10-13T07:37:49;8.80;;;4.30;;
49610;SDS011;35515;48.766;9.176;2023-10-13T07:40:20;12.63;;;4.28;;
49610;SDS011;35515;48.766;9.176;2023-10-13T07:43:05;7.15;;;3.92;;
49610;SDS011;35515;48.766;9.176;2023-10-13T07:45:35;8.65;;;4.18;;
49610;SDS011;35515;48.766;9.176;2023-10-13T07:48:05;9.77;;;3.83;;
49610;SDS011;35515;48.766;9.176;2023-10-13T07:50:37;11.73;;;4.80;;
49610;SDS011;35515;48.766;9.176;2023-10-13T07:53:06;7.25;;;3.97;;
49610;SDS011;35515;48.766;9.176;2023-10-13T07:55:47;8.13;;;3.90;;
49610;SDS011;35515;48.766;9.176;2023-10-13T07:58:19;9.70;;;3.55;;
49610;SDS011;35515;48.766;9.176;2023-10-13T08:00:45;6.20;;;3.60;;
49610;SDS011;35515;48.766;9.176;2023-10-13T08:03:32;11.35;;;3.90;;
49610;SDS011;35515;48.766;9.176;2023-10-13T08:06:09;8.00;;;3.50;;
49610;SDS011;35515;48.766;9.176;2023-10-13T08:08:45;7.38;;;3.63;;
49610;SDS011;35515;48.766;9.176;2023-10-13T08:11:15;9.73;;;3.65;;
49610;SDS011;35515;48.766;9.176;2023-10-13T08:13:52;9.20;;;3.53;;
49610;SDS011;35515;48.766;9.176;2023-10-13T08:16:21;8.65;;;4.03;;
49610;SDS011;35515;48.766;9.176;2023-10-13T08:18:51;8.23;;;4.25;;
49610;SDS011;35515;48.766;9.176;2023-10-13T08:21:18;13.13;;;3.67;;
49610;SDS011;35515;48.766;9.176;2023-10-13T08:23:48;8.98;;;3.63;;
49610;SDS011;35515;48.766;9.176;2023-10-13T08:26:28;11.52;;;4.45;;
49610;SDS011;35515;48.766;9.176;2023-10-13T08:29:22;9.02;;;4.13;;
49610;SDS011;35515;48.766;9.176;2023-10-13T08:32:11;8.90;;;4.22;;
49610;SDS011;35515;48.766;9.176;2023-10-13T08:34:49;8.30;;;4.72;;
49610;SDS011;35515;48.766;9.176;2023-10-13T08:37:34;9.13;;;3.67;;
49610;SDS011;35515;48.766;9.176;2023-10-13T08:40:11;11.52;;;3.40;;
49610;SDS011;35515;48.766;9.176;2023-10-13T08:43:02;11.43;;;3.45;;
49610;SDS011;35515;48.766;9.176;2023-10-13T08:45:38;9.35;;;3.92;;
49610;SDS011;35515;48.766;9.176;2023-10-13T08:48:23;10.88;;;4.10;;
49610;SDS011;35515;48.766;9.176;2023-10-13T08:51:02;13.43;;;4.18;;
49610;SDS011;35515;48.766;9.176;2023-10-13T08:53:35;12.40;;;3.60;;
49610;SDS011;35515;48.766;9.176;2023-10-13T08:56:11;8.38;;;3.78;;
49610;SDS011;35515;48.766;9.176;2023-10-13T08:58:40;7.15;;;3.30;;
49610;SDS011;35515;48.766;9.176;2023-10-13T09:01:32;7.57;;;3.60;;
49610;SDS011;35515;48.766;9.176;2023-10-13T09:04:11;8.00;;;3.35;;
49610;SDS011;35515;48.766;9.176;2023-10-13T09:06:54;7.65;;;3.22;;
49610;SDS011;35515;48.766;9.176;2023-10-13T09:09:33;9.20;;;3.55;;
49610;SDS011;35515;48.766;9.176;2023-10-13T09:12:24;10.90;;;3.85;;
49610;SDS011;35515;48.766;9.176;2023-10-13T09:15:01;10.18;;;3.25;;
49610;SDS011;35515;48.766;9.176;2023-10-13T09:17:31;10.40;;;3.70;;
49610;SDS011;35515;48.766;9.176;2023-10-13T09:19:59;7.57;;;3.10;;
49610;SDS011;35515;48.766;9.176;2023-10-13T09:22:48;6.25;;;3.35;;
49610;SDS011;35515;48.766;9.176;2023-10-13T09:25:23;8.43;;;3.38;;
49610;SDS011;35515;48.766;9.176;2023-10-13T09:27:50;8.70;;;3.42;;
49610;SDS011;35515;48.766;9.176;2023-10-13T09:30:18;9.43;;;3.60;;
49610;SDS011;35515;48.766;9.176;2023-10-13T09:32:46;5.55;;;3.10;;
49610;SDS011;35515;48.766;9.176;2023-10-13T09:35:16;5.90;;;2.88;;
49610;SDS011;35515;48.766;9.176;2023-10-13T09:37:44;9.40;;;3.20;;
49610;SDS011;35515;48.766;9.176;2023-10-13T09:40:13;8.98;;;3.40;;
49610;SDS011;35515;48.766;9.176;2023-10-13T09:42:54;7.47;;;3.53;;
49610;SDS011;35515;48.766;9.176;2023-10-13T09:45:23;6.97;;;3.00;;
49610;SDS011;35515;48.766;9.176;2023-10-13T09:47:55;8.60;;;3.50;;
49610;SDS011;35515;48.766;9.176;2023-10-13T09:50:31;5.43;;;2.97;;
49610;SDS011;35515;48.766;9.176;2023-10-13T09:53:05;6.03;;;3.00;;
49610;SDS011;35515;48.766;9.176;2023-10-13T09:55:38;8.05;;;3.58;;
49610;SDS011;35515;48.766;9.176;2023-10-13T09:58:10;6.65;;;2.90;;
49610;SDS011;35515;48.766;9.176;2023-10-13T10:00:42;10.23;;;6.20;;
49610;SDS011;35515;48.766;9.176;2023-10-13T10:03:13;11.38;;;4.10;;
49610;SDS011;35515;48.766;9.176;2023-10-13T10:05:56;8.35;;;3.28;;
49610;SDS011;35515;48.766;9.176;2023-10-13T10:08:30;8.63;;;3.00;;
49610;SDS011;35515;48.766;9.176;2023-10-13T10:11:15;8.95;;;3.50;;
49610;SDS011;35515;48.766;9.176;2023-10-13T10:13:58;7.72;;;2.97;;
49610;SDS011;35515;48.766;9.176;2023-10-13T10:16:37;9.32;;;3.67;;
49610;SDS011;35515;48.766;9.176;2023-10-13T10:19:15;8.32;;;3.25;;
49610;SDS011;35515;48.766;9.176;2023-10-13T10:21:43;8.27;;;4.05;;
49610;SDS011;35515;48.766;9.176;2023-10-13T10:24:13;8.88;;;3.55;;
49610;SDS011;35515;48.766;9.176;2023-10-13T10:26:53;5.32;;;3.17;;
49610;SDS011;35515;48.766;9.176;2023-10-13T10:29:19;8.63;;;3.00;;
49610;SDS011;35515;48.766;9.176;2023-10-13T10:31:46;8.05;;;3.15;;
49610;SDS011;35515;48.766;9.176;2023-10-13T10:34:13;10.32;;;3.95;;
49610;SDS011;35515;48.766;9.176;2023-10-13T10:36:44;12.80;;;3.90;;
49610;SDS011;35515;48.766;9.176;2023-10-13T10:39:13;9.77;;;3.10;;
49610;SDS011;35515;48.766;9.176;2023-10-13T10:41:42;7.63;;;3.20;;
49610;SDS011;35515;48.766;9.176;2023-10-13T10:44:18;7.57;;;3.35;;
49610;SDS011;35515;48.766;9.176;2023-10-13T10:47:07;5.88;;;2.65;;
49610;SDS011;35515;48.766;9.176;2023-10-13T10:49:36;6.40;;;3.03;;
49610;SDS011;35515;48.766;9.176;2023-10-13T10:52:03;5.82;;;3.05;;
49610;SDS011;35515;48.766;9.176;2023-10-13T10:54:43;9.23;;;3.28;;
49610;SDS011;35515;48.766;9.176;2023-10-13T10:57:13;7.50;;;3.10;;
49610;SDS011;35515;48.766;9.176;2023-10-13T10:59:44;8.88;;;3.08;;
49610;SDS011;35515;48.766;9.176;2023-10-13T11:02:11;9.30;;;2.95;;
49610;SDS011;35515;48.766;9.176;2023-10-13T11:04:43;7.60;;;3.35;;
49610;SDS011;35515;48.766;9.176;2023-10-13T11:07:20;8.90;;;3.35;;
49610;SDS011;35515;48.766;9.176;2023-10-13T11:09:48;6.75;;;3.13;;
49610;SDS011;35515;48.766;9.176;2023-10-13T11:12:18;12.20;;;4.47;;
49610;SDS011;35515;48.766;9.176;2023-10-13T11:15:00;9.50;;;3.17;;
49610;SDS011;35515;48.766;9.176;2023-10-13T11:17:30;9.73;;;4.38;;
49610;SDS011;35515;48.766;9.176;2023-10-13T11:20:08;10.60;;;3.58;;
49610;SDS011;35515;48.766;9.176;2023-10-13T11:22:41;10.88;;;3.83;;
49610;SDS011;35515;48.766;9.176;2023-10-13T11:27:47;10.60;;;3.90;;
49610;SDS011;35515;48.766;9.176;2023-10-13T11:30:26;7.15;;;3.33;;
49610;SDS011;35515;48.766;9.176;2023-10-13T11:33:06;10.02;;;3.53;;
49610;SDS011;35515;48.766;9.176;2023-10-13T11:35:34;7.28;;;3.58;;
49610;SDS011;35515;48.766;9.176;2023-10-13T11:38:19;11.15;;;3.45;;
49610;SDS011;35515;48.766;9.176;2023-10-13T11:40:51;7.90;;;3.15;;
49610;SDS011;35515;48.766;9.176;2023-10-13T11:43:36;8.90;;;3.25;;
49610;SDS011;35515;48.766;9.176;2023-10-13T11:46:19;6.65;;;2.85;;
49610;SDS011;35515;48.766;9.176;2023-10-13T11:49:00;8.60;;;3.20;;
49610;SDS011;35515;48.766;9.176;2023-10-13T11:51:32;11.88;;;3.83;;
49610;SDS011;35515;48.766;9.176;2023-10-13T11:54:03;6.93;;;2.97;;
49610;SDS011;35515;48.766;9.176;2023-10-13T11:56:30;7.63;;;3.00;;
49610;SDS011;35515;48.766;9.176;2023-10-13T11:58:56;7.72;;;3.13;;
49610;SDS011;35515;48.766;9.176;2023-10-13T12:01:27;6.83;;;3.00;;
49610;SDS011;35515;48.766;9.176;2023-10-13T12:04:08;9.98;;;3.22;;
49610;SDS011;35515;48.766;9.176;2023-10-13T12:06:52;9.60;;;3.38;;
49610;SDS011;35515;48.766;9.176;2023-10-13T12:09:39;6.85;;;3.35;;
49610;SDS011;35515;48.766;9.176;2023-10-13T12:12:17;8.07;;;3.50;;
49610;SDS011;35515;48.766;9.176;2023-10-13T12:14:44;7.22;;;2.53;;
49610;SDS011;35515;48.766;9.176;2023-10-13T12:17:21;10.25;;;3.20;;
49610;SDS011;35515;48.766;9.176;2023-10-13T12:19:53;8.45;;;3.63;;
49610;SDS011;35515;48.766;9.176;2023-10-13T12:22:20;6.82;;;2.90;;
49610;SDS011;35515;48.766;9.176;2023-10-13T12:24:53;8.43;;;3.40;;
49610;SDS011;35515;48.766;9.176;2023-10-13T12:27:20;9.68;;;3.10;;
49610;SDS011;35515;48.766;9.176;2023-10-13T12:29:52;6.35;;;3.15;;
49610;SDS011;35515;48.766;9.176;2023-10-13T12:32:22;6.15;;;3.42;;
49610;SDS011;35515;48.766;9.176;2023-10-13T12:34:50;5.07;;;3.28;;
49610;SDS011;35515;48.766;9.176;2023-10-13T12:37:25;8.40;;;3.22;;
49610;SDS011;35515;48.766;9.176;2023-10-13T12:40:15;9.30;;;3.45;;
49610;SDS011;35515;48.766;9.176;2023-10-13T12:43:00;8.48;;;3.15;;
49610;SDS011;35515;48.766;9.176;2023-10-13T12:45:44;10.77;;;3.08;;
49610;SDS011;35515;48.766;9.176;2023-10-13T12:48:31;6.40;;;3.13;;
49610;SDS011;35515;48.766;9.176;2023-10-13T12:51:15;8.57;;;3.42;;
49610;SDS011;35515;48.766;9.176;2023-10-13T12:53:56;7.70;;;3.72;;
49610;SDS011;35515;48.766;9.176;2023-10-13T12:56:29;6.65;;;3.20;;
49610;SDS011;35515;48.766;9.176;2023-10-13T12:58:56;7.95;;;2.97;;
49610;SDS011;35515;48.766;9.176;2023-10-13T13:01:24;10.30;;;3.92;;
49610;SDS011;35515;48.766;9.176;2023-10-13T13:03:59;5.63;;;2.60;;
49610;SDS011;35515;48.766;9.176;2023-10-13T13:06:29;8.18;;;2.95;;
49610;SDS011;35515;48.766;9.176;2023-10-13T13:08:56;7.95;;;3.40;;
49610;SDS011;35515;48.766;9.176;2023-10-13T13:11:23;6.40;;;3.47;;
49610;SDS011;35515;48.766;9.176;2023-10-13T13:13:50;10.00;;;3.13;;
49610;SDS011;35515;48.766;9.176;2023-10-13T13:16:17;9.30;;;2.90;;
49610;SDS011;35515;48.766;9.176;2023-10-13T13:18:49;7.82;;;2.80;;
49610;SDS011;35515;48.766;9.176;2023-10-13T13:21:17;7.18;;;3.22;;
49610;SDS011;35515;48.766;9.176;2023-10-13T13:23:48;8.35;;;3.17;;
49610;SDS011;35515;48.766;9.176;2023-10-13T13:26:15;9.77;;;3.22;;
49610;SDS011;35515;48.766;9.176;2023-10-13T13:28:42;5.57;;;2.92;;
49610;SDS011;35515;48.766;9.176;2023-10-13T13:31:09;8.00;;;3.08;;
49610;SDS011;35515;48.766;9.176;2023-10-13T13:33:37;5.65;;;2.97;;
49610;SDS011;35515;48.766;9.176;2023-10-13T13:36:07;10.60;;;3.60;;
49610;SDS011;35515;48.766;9.176;2023-10-13T13:38:40;6.03;;;2.90;;
49610;SDS011;35515;48.766;9.176;2023-10-13T13:41:11;5.95;;;3.00;;
49610;SDS011;35515;48.766;9.176;2023-10-13T13:43:41;8.27;;;2.70;;
49610;SDS011;35515;48.766;9.176;2023-10-13T13:46:15;8.07;;;2.70;;
49610;SDS011;35515;48.766;9.176;2023-10-13T13:48:43;7.18;;;2.70;;
49610;SDS011;35515;48.766;9.176;2023-10-13T13:51:12;7.70;;;3.53;;
49610;SDS011;35515;48.766;9.176;2023-10-13T13:53:41;8.98;;;3.03;;
49610;SDS011;35515;48.766;9.176;2023-10-13T13:56:13;6.75;;;2.95;;
49610;SDS011;35515;48.766;9.176;2023-10-13T13:58:41;6.32;;;3.03;;
49610;SDS011;35515;48.766;9.176;2023-10-13T14:01:08;7.07;;;3.00;;
49610;SDS011;35515;48.766;9.176;2023-10-13T14:03:39;9.27;;;2.83;;
49610;SDS011;35515;48.766;9.176;2023-10-13T14:06:10;8.57;;;3.58;;
49610;SDS011;35515;48.766;9.176;2023-10-13T14:08:44;7.95;;;2.83;;
49610;SDS011;35515;48.766;9.176;2023-10-13T14:11:13;6.93;;;2.72;;
49610;SDS011;35515;48.766;9.176;2023-10-13T14:13:47;5.82;;;2.55;;
49610;SDS011;35515;48.766;9.176;2023-10-13T14:16:14;10.82;;;2.65;;
49610;SDS011;35515;48.766;9.176;2023-10-13T14:18:43;5.78;;;2.50;;
49610;SDS011;35515;48.766;9.176;2023-10-13T14:21:10;7.47;;;2.88;;
49610;SDS011;35515;48.766;9.176;2023-10-13T14:23:41;6.25;;;2.78;;
49610;SDS011;35515;48.766;9.176;2023-10-13T14:26:13;8.77;;;3.67;;
49610;SDS011;35515;48.766;9.176;2023-10-13T14:28:40;6.68;;;2.75;;
49610;SDS011;35515;48.766;9.176;2023-10-13T14:31:17;6.55;;;2.85;;
49610;SDS011;35515;48.766;9.176;2023-10-13T14:33:45;5.65;;;2.53;;
49610;SDS011;35515;48.766;9.176;2023-10-13T14:36:12;8.30;;;2.80;;
49610;SDS011;35515;48.766;9.176;2023-10-13T14:38:46;4.90;;;2.63;;
49610;SDS011;35515;48.766;9.176;2023-10-13T14:41:14;7.15;;;2.60;;
49610;SDS011;35515;48.766;9.176;2023-10-13T14:43:41;4.85;;;2.65;;
49610;SDS011;35515;48.766;9.176;2023-10-13T14:46:12;5.53;;;2.70;;
49610;SDS011;35515;48.766;9.176;2023-10-13T14:48:39;7.22;;;2.90;;
49610;SDS011;35515;48.766;9.176;2023-10-13T14:51:08;6.63;;;2.58;;
49610;SDS011;35515;48.766;9.176;2023-10-13T14:53:38;5.13;;;2.55;;
49610;SDS011;35515;48.766;9.176;2023-10-13T14:56:09;6.03;;;2.60;;
49610;SDS011;35515;48.766;9.176;2023-10-13T14:58:36;6.18;;;2.70;;
49610;SDS011;35515;48.766;9.176;2023-10-13T15:01:10;8.25;;;2.47;;
49610;SDS011;35515;48.766;9.176;2023-10-13T15:03:37;7.63;;;2.60;;
49610;SDS011;35515;48.766;9.176;2023-10-13T15:06:03;4.90;;;1.98;;
49610;SDS011;35515;48.766;9.176;2023-10-13T15:08:30;4.85;;;2.38;;
49610;SDS011;35515;48.766;9.176;2023-10-13T15:10:56;5.90;;;2.60;;
49610;SDS011;35515;48.766;9.176;2023-10-13T15:13:25;4.47;;;2.40;;
49610;SDS011;35515;48.766;9.176;2023-10-13T15:15:53;9.38;;;2.80;;
49610;SDS011;35515;48.766;9.176;2023-10-13T15:18:20;5.70;;;2.28;;
49610;SDS011;35515;48.766;9.176;2023-10-13T15:20:48;3.92;;;2.20;;
49610;SDS011;35515;48.766;9.176;2023-10-13T15:23:14;5.15;;;2.40;;
49610;SDS011;35515;48.766;9.176;2023-10-13T15:25:48;3.58;;;2.20;;
49610;SDS011;35515;48.766;9.176;2023-10-13T15:28:15;6.25;;;2.38;;